createdAt,value
2017-11-10T00:00:08.308Z,0
2017-11-10T00:00:48.885Z,0
2017-11-10T00:01:29.470Z,0
2017-11-10T00:02:10.045Z,0
2017-11-10T00:02:50.617Z,0
2017-11-10T00:03:31.187Z,0
2017-11-10T00:04:11.762Z,0
2017-11-10T00:04:52.359Z,0
2017-11-10T00:05:32.936Z,0
2017-11-10T00:06:13.508Z,0
2017-11-10T00:06:54.098Z,0
2017-11-10T00:07:34.666Z,0
2017-11-10T00:08:15.259Z,0
2017-11-10T00:08:55.836Z,0
2017-11-10T00:09:36.395Z,0
2017-11-10T00:10:17.035Z,0
2017-11-10T00:10:57.613Z,0
2017-11-10T00:11:38.232Z,0
2017-11-10T00:12:18.795Z,0
2017-11-10T00:12:59.370Z,0
2017-11-10T00:13:39.966Z,0
2017-11-10T00:14:20.591Z,0
2017-11-10T00:15:01.168Z,0
2017-11-10T00:15:41.765Z,0
2017-11-10T00:16:22.327Z,0
2017-11-10T00:17:02.966Z,0
2017-11-10T00:17:43.570Z,0
2017-11-10T00:18:24.140Z,0
2017-11-10T00:19:04.725Z,0
2017-11-10T00:19:45.337Z,0
2017-11-10T00:20:25.944Z,0
2017-11-10T00:21:06.553Z,0
2017-11-10T00:21:47.101Z,0
2017-11-10T00:22:27.715Z,0
2017-11-10T00:23:08.288Z,0
2017-11-10T00:23:48.917Z,0
2017-11-10T00:24:29.495Z,0
2017-11-10T00:25:10.056Z,0
2017-11-10T00:25:50.631Z,0
2017-11-10T00:26:31.283Z,0
2017-11-10T00:27:11.891Z,0
2017-11-10T00:27:52.453Z,0
2017-11-10T00:28:33.629Z,0
2017-11-10T00:29:14.235Z,0
2017-11-10T00:29:54.791Z,0
2017-11-10T00:30:35.383Z,0
2017-11-10T00:31:15.960Z,0
2017-11-10T00:31:56.528Z,0
2017-11-10T00:32:37.116Z,0
2017-11-10T00:33:17.688Z,0
2017-11-10T00:33:58.279Z,0
2017-11-10T00:34:38.867Z,0
2017-11-10T00:35:19.447Z,0
2017-11-10T00:36:00.028Z,0
2017-11-10T00:36:40.628Z,0
2017-11-10T00:37:21.243Z,0
2017-11-10T00:38:01.813Z,0
2017-11-10T00:38:42.406Z,0
2017-11-10T00:39:22.982Z,0
2017-11-10T00:40:03.539Z,0
2017-11-10T00:40:44.117Z,0
2017-11-10T00:41:24.698Z,0
2017-11-10T00:42:05.282Z,0
2017-11-10T00:42:45.920Z,0
2017-11-10T00:43:26.510Z,0
2017-11-10T00:44:07.076Z,0
2017-11-10T00:44:47.663Z,0
2017-11-10T00:45:28.240Z,0
2017-11-10T00:46:08.801Z,0
2017-11-10T00:46:49.375Z,0
2017-11-10T00:47:29.939Z,0
2017-11-10T00:48:10.511Z,0
2017-11-10T00:48:51.100Z,0
2017-11-10T00:49:31.717Z,0
2017-11-10T00:50:12.318Z,0
2017-11-10T00:50:52.912Z,0
2017-11-10T00:51:33.525Z,0
2017-11-10T00:52:14.069Z,0
2017-11-10T00:52:54.657Z,0
2017-11-10T00:53:35.242Z,0
2017-11-10T00:54:15.810Z,0
2017-11-10T00:54:56.418Z,0
2017-11-10T00:55:37.003Z,0
2017-11-10T00:56:17.558Z,0
2017-11-10T00:56:58.127Z,0
2017-11-10T00:57:38.724Z,0
2017-11-10T00:58:19.292Z,0
2017-11-10T00:58:59.854Z,0
2017-11-10T00:59:40.418Z,0
2017-11-10T01:00:21.020Z,0
2017-11-10T01:01:01.597Z,0
2017-11-10T01:01:42.158Z,0
2017-11-10T01:02:22.730Z,0
2017-11-10T01:03:03.300Z,0
2017-11-10T01:03:43.889Z,0
2017-11-10T01:04:24.469Z,0
2017-11-10T01:05:05.017Z,0
2017-11-10T01:05:45.577Z,0
2017-11-10T01:06:26.153Z,0
2017-11-10T01:07:06.717Z,0
2017-11-10T01:07:47.283Z,0
2017-11-10T01:08:27.864Z,0
2017-11-10T01:09:08.432Z,0
2017-11-10T01:09:48.997Z,0
2017-11-10T01:10:29.567Z,0
2017-11-10T01:11:10.145Z,0
2017-11-10T01:11:50.709Z,0
2017-11-10T01:12:31.272Z,0
2017-11-10T01:13:11.831Z,0
2017-11-10T01:13:52.397Z,0
2017-11-10T01:14:32.974Z,0
2017-11-10T01:15:13.542Z,0
2017-11-10T01:15:54.125Z,0
2017-11-10T01:16:34.686Z,0
2017-11-10T01:17:15.277Z,0
2017-11-10T01:17:55.842Z,0
2017-11-10T01:18:36.413Z,0
2017-11-10T01:19:17.004Z,0
2017-11-10T01:19:57.558Z,0
2017-11-10T01:20:38.142Z,0
2017-11-10T01:21:18.707Z,0
2017-11-10T01:21:59.318Z,0
2017-11-10T01:22:39.862Z,0
2017-11-10T01:23:20.426Z,0
2017-11-10T01:24:01.008Z,0
2017-11-10T01:24:41.568Z,0
2017-11-10T01:25:22.233Z,0
2017-11-10T01:26:02.801Z,0
2017-11-10T01:26:43.404Z,0
2017-11-10T01:27:24.152Z,0
2017-11-10T01:28:04.718Z,0
2017-11-10T01:28:45.277Z,0
2017-11-10T01:29:25.841Z,0
2017-11-10T01:30:06.404Z,0
2017-11-10T01:30:46.982Z,0
2017-11-10T01:31:27.576Z,0
2017-11-10T01:32:08.144Z,0
2017-11-10T01:32:48.707Z,0
2017-11-10T01:33:29.280Z,0
2017-11-10T01:34:09.870Z,0
2017-11-10T01:34:50.440Z,0
2017-11-10T01:35:31.021Z,0
2017-11-10T01:36:11.575Z,0
2017-11-10T01:36:52.164Z,0
2017-11-10T01:37:32.729Z,0
2017-11-10T01:38:13.291Z,0
2017-11-10T01:38:53.868Z,0
2017-11-10T01:39:34.440Z,0
2017-11-10T01:40:15.019Z,0
2017-11-10T01:40:55.579Z,0
2017-11-10T01:41:36.168Z,0
2017-11-10T01:42:16.751Z,0
2017-11-10T01:42:57.348Z,0
2017-11-10T01:43:37.941Z,0
2017-11-10T01:44:18.524Z,0
2017-11-10T01:44:59.094Z,0
2017-11-10T01:45:39.661Z,0
2017-11-10T01:46:20.228Z,0
2017-11-10T01:47:00.791Z,0
2017-11-10T01:47:41.361Z,0
2017-11-10T01:48:21.957Z,0
2017-11-10T01:49:02.565Z,0
2017-11-10T01:49:43.160Z,0
2017-11-10T01:50:23.779Z,0
2017-11-10T01:51:04.374Z,0
2017-11-10T01:51:44.983Z,0
2017-11-10T01:52:25.572Z,0
2017-11-10T01:53:06.152Z,0
2017-11-10T01:53:46.762Z,0
2017-11-10T01:54:27.372Z,0
2017-11-10T01:55:07.969Z,0
2017-11-10T01:55:48.586Z,0
2017-11-10T01:56:29.165Z,0
2017-11-10T01:57:09.757Z,0
2017-11-10T01:57:50.357Z,0
2017-11-10T01:58:30.946Z,0
2017-11-10T01:59:11.511Z,0
2017-11-10T01:59:52.087Z,0
2017-11-10T02:00:32.674Z,0
2017-11-10T02:01:13.232Z,0
2017-11-10T02:01:53.842Z,0
2017-11-10T02:02:34.413Z,0
2017-11-10T02:03:14.979Z,0
2017-11-10T02:03:55.543Z,0
2017-11-10T02:04:36.146Z,0
2017-11-10T02:05:16.713Z,0
2017-11-10T02:05:57.319Z,0
2017-11-10T02:06:37.900Z,0
2017-11-10T02:07:18.474Z,0
2017-11-10T02:07:59.041Z,0
2017-11-10T02:08:39.606Z,0
2017-11-10T02:09:20.188Z,0
2017-11-10T02:10:00.773Z,0
2017-11-10T02:10:41.343Z,0
2017-11-10T02:11:21.917Z,0
2017-11-10T02:12:02.484Z,0
2017-11-10T02:12:43.097Z,0
2017-11-10T02:13:23.657Z,0
2017-11-10T02:14:04.237Z,0
2017-11-10T02:14:44.810Z,0
2017-11-10T02:15:25.387Z,0
2017-11-10T02:16:05.988Z,0
2017-11-10T02:16:46.549Z,0
2017-11-10T02:17:27.119Z,0
2017-11-10T02:18:07.693Z,0
2017-11-10T02:18:48.258Z,0
2017-11-10T02:19:28.847Z,0
2017-11-10T02:20:09.463Z,0
2017-11-10T02:20:50.050Z,0
2017-11-10T02:21:30.616Z,0
2017-11-10T02:22:11.198Z,0
2017-11-10T02:22:51.761Z,0
2017-11-10T02:23:32.322Z,0
2017-11-10T02:24:12.927Z,0
2017-11-10T02:24:53.493Z,0
2017-11-10T02:25:34.053Z,0
2017-11-10T02:26:14.638Z,0
2017-11-10T02:26:55.206Z,0
2017-11-10T02:27:35.760Z,0
2017-11-10T02:28:16.362Z,0
2017-11-10T02:28:56.928Z,0
2017-11-10T02:29:37.529Z,0
2017-11-10T02:30:18.105Z,0
2017-11-10T02:30:58.666Z,0
2017-11-10T02:31:39.251Z,0
2017-11-10T02:32:19.826Z,0
2017-11-10T02:33:00.410Z,0
2017-11-10T02:33:40.990Z,0
2017-11-10T02:34:21.553Z,0
2017-11-10T02:35:02.128Z,0
2017-11-10T02:35:42.731Z,0
2017-11-10T02:36:23.331Z,0
2017-11-10T02:37:03.943Z,0
2017-11-10T02:37:44.531Z,0
2017-11-10T02:38:25.084Z,0
2017-11-10T02:39:05.648Z,0
2017-11-10T02:39:46.231Z,0
2017-11-10T02:40:26.785Z,0
2017-11-10T02:41:07.360Z,0
2017-11-10T02:41:47.929Z,0
2017-11-10T02:42:28.489Z,0
2017-11-10T02:43:09.053Z,0
2017-11-10T02:43:49.612Z,0
2017-11-10T02:44:30.171Z,0
2017-11-10T02:45:10.740Z,0
2017-11-10T02:45:51.349Z,0
2017-11-10T02:46:31.925Z,0
2017-11-10T02:47:12.505Z,0
2017-11-10T02:47:53.071Z,0
2017-11-10T02:48:33.654Z,0
2017-11-10T02:49:14.221Z,0
2017-11-10T02:49:54.791Z,0
2017-11-10T02:50:35.355Z,0
2017-11-10T02:51:15.905Z,0
2017-11-10T02:51:56.463Z,0
2017-11-10T02:52:37.034Z,0
2017-11-10T02:53:17.627Z,0
2017-11-10T02:53:58.218Z,0
2017-11-10T02:54:38.816Z,0
2017-11-10T02:55:19.403Z,0
2017-11-10T02:55:59.962Z,0
2017-11-10T02:56:40.518Z,0
2017-11-10T02:57:21.116Z,0
2017-11-10T02:58:01.686Z,0
2017-11-10T02:58:42.240Z,0
2017-11-10T02:59:22.835Z,0
2017-11-10T03:00:03.386Z,0
2017-11-10T03:00:43.958Z,0
2017-11-10T03:01:24.516Z,0
2017-11-10T03:02:05.099Z,0
2017-11-10T03:02:45.665Z,0
2017-11-10T03:03:26.237Z,0
2017-11-10T03:04:06.810Z,0
2017-11-10T03:04:47.437Z,0
2017-11-10T03:05:28.013Z,0
2017-11-10T03:06:08.578Z,0
2017-11-10T03:06:49.152Z,0
2017-11-10T03:07:29.724Z,0
2017-11-10T03:08:10.308Z,0
2017-11-10T03:08:50.872Z,0
2017-11-10T03:09:31.422Z,0
2017-11-10T03:10:12.003Z,0
2017-11-10T03:10:52.573Z,0
2017-11-10T03:11:33.160Z,0
2017-11-10T03:12:13.716Z,0
2017-11-10T03:12:54.277Z,0
2017-11-10T03:13:34.841Z,0
2017-11-10T03:14:15.399Z,0
2017-11-10T03:14:55.989Z,0
2017-11-10T03:15:36.659Z,0
2017-11-10T03:16:17.229Z,0
2017-11-10T03:16:57.788Z,0
2017-11-10T03:17:38.342Z,0
2017-11-10T03:18:18.938Z,0
2017-11-10T03:18:59.525Z,0
2017-11-10T03:19:40.149Z,0
2017-11-10T03:20:20.711Z,0
2017-11-10T03:21:01.291Z,0
2017-11-10T03:21:41.860Z,0
2017-11-10T03:22:22.435Z,0
2017-11-10T03:23:03.020Z,0
2017-11-10T03:23:43.624Z,0
2017-11-10T03:24:24.192Z,0
2017-11-10T03:25:04.792Z,0
2017-11-10T03:25:45.360Z,0
2017-11-10T03:26:25.929Z,0
2017-11-10T03:27:06.496Z,0
2017-11-10T03:27:47.065Z,0
2017-11-10T03:28:27.641Z,0
2017-11-10T03:29:08.207Z,0
2017-11-10T03:29:48.832Z,0
2017-11-10T03:30:29.417Z,0
2017-11-10T03:31:09.987Z,0
2017-11-10T03:31:50.553Z,0
2017-11-10T03:32:31.147Z,0
2017-11-10T03:33:11.738Z,0
2017-11-10T03:33:52.313Z,0
2017-11-10T03:34:32.887Z,0
2017-11-10T03:35:13.490Z,0
2017-11-10T03:35:54.057Z,0
2017-11-10T03:36:34.627Z,0
2017-11-10T03:37:15.266Z,0
2017-11-10T03:37:55.852Z,0
2017-11-10T03:38:36.439Z,0
2017-11-10T03:39:17.004Z,0
2017-11-10T03:39:57.579Z,0
2017-11-10T03:40:38.175Z,0
2017-11-10T03:41:18.754Z,0
2017-11-10T03:41:59.312Z,0
2017-11-10T03:42:39.888Z,0
2017-11-10T03:43:20.458Z,0
2017-11-10T03:44:01.105Z,0
2017-11-10T03:44:41.679Z,0
2017-11-10T03:45:22.247Z,0
2017-11-10T03:46:02.826Z,0
2017-11-10T03:46:43.405Z,0
2017-11-10T03:47:23.989Z,0
2017-11-10T03:48:04.558Z,0
2017-11-10T03:48:45.128Z,0
2017-11-10T03:49:25.716Z,0
2017-11-10T03:50:06.307Z,0
2017-11-10T03:50:46.861Z,0
2017-11-10T03:51:27.436Z,0
2017-11-10T03:52:08.011Z,0
2017-11-10T03:52:48.615Z,0
2017-11-10T03:53:29.163Z,0
2017-11-10T03:54:09.738Z,0
2017-11-10T03:54:50.285Z,0
2017-11-10T03:55:30.867Z,0
2017-11-10T03:56:11.441Z,0
2017-11-10T03:56:52.002Z,0
2017-11-10T03:57:32.595Z,0
2017-11-10T03:58:13.164Z,0
2017-11-10T03:58:53.766Z,0
2017-11-10T03:59:34.340Z,0
2017-11-10T04:00:14.913Z,0
2017-11-10T04:00:55.486Z,0
2017-11-10T04:01:36.080Z,0
2017-11-10T04:02:16.649Z,0
2017-11-10T04:02:57.214Z,0
2017-11-10T04:03:37.769Z,0
2017-11-10T04:04:18.341Z,0
2017-11-10T04:04:58.901Z,0
2017-11-10T04:05:39.465Z,0
2017-11-10T04:06:20.040Z,0
2017-11-10T04:07:00.620Z,0
2017-11-10T04:07:41.199Z,0
2017-11-10T04:08:21.773Z,0
2017-11-10T04:09:02.342Z,0
2017-11-10T04:09:42.885Z,0
2017-11-10T04:10:23.505Z,0
2017-11-10T04:11:04.052Z,0
2017-11-10T04:11:44.621Z,0
2017-11-10T04:12:25.180Z,0
2017-11-10T04:13:05.755Z,0
2017-11-10T04:13:46.462Z,0
2017-11-10T04:14:27.043Z,0
2017-11-10T04:15:07.624Z,0
2017-11-10T04:15:48.196Z,0
2017-11-10T04:16:28.779Z,0
2017-11-10T04:17:09.355Z,0
2017-11-10T04:17:49.928Z,0
2017-11-10T04:18:30.562Z,0
2017-11-10T04:19:11.143Z,0
2017-11-10T04:19:51.704Z,0
2017-11-10T04:20:32.317Z,0
2017-11-10T04:21:12.893Z,0
2017-11-10T04:21:53.514Z,0
2017-11-10T04:22:34.086Z,0
2017-11-10T04:23:14.652Z,0
2017-11-10T04:23:55.214Z,0
2017-11-10T04:24:35.771Z,0
2017-11-10T04:25:16.374Z,0
2017-11-10T04:25:56.948Z,0
2017-11-10T04:26:37.547Z,0
2017-11-10T04:27:18.118Z,0
2017-11-10T04:27:58.694Z,0
2017-11-10T04:28:39.284Z,0
2017-11-10T04:29:19.860Z,0
2017-11-10T04:30:00.429Z,0
2017-11-10T04:30:41.014Z,0
2017-11-10T04:31:21.577Z,0
2017-11-10T04:32:02.181Z,0
2017-11-10T04:32:42.769Z,0
2017-11-10T04:33:23.332Z,0
2017-11-10T04:34:03.907Z,0
2017-11-10T04:34:44.483Z,0
2017-11-10T04:35:25.181Z,0
2017-11-10T04:36:05.842Z,0
2017-11-10T04:36:46.396Z,0
2017-11-10T04:37:26.970Z,0
2017-11-10T04:38:07.538Z,0
2017-11-10T04:38:48.135Z,0
2017-11-10T04:39:28.709Z,0
2017-11-10T04:40:09.301Z,0
2017-11-10T04:40:49.871Z,0
2017-11-10T04:41:30.438Z,0
2017-11-10T04:42:11.014Z,0
2017-11-10T04:42:51.587Z,0
2017-11-10T04:43:32.157Z,0
2017-11-10T04:44:12.722Z,0
2017-11-10T04:44:53.287Z,0
2017-11-10T04:45:33.860Z,0
2017-11-10T04:46:14.418Z,0
2017-11-10T04:46:55.003Z,0
2017-11-10T04:47:35.573Z,0
2017-11-10T04:48:16.143Z,0
2017-11-10T04:48:56.719Z,0
2017-11-10T04:49:37.284Z,0
2017-11-10T04:50:17.852Z,0
2017-11-10T04:50:58.432Z,0
2017-11-10T04:51:39.038Z,0
2017-11-10T04:52:19.608Z,0
2017-11-10T04:53:00.264Z,0
2017-11-10T04:53:40.844Z,0
2017-11-10T04:54:21.407Z,0
2017-11-10T04:55:01.967Z,0
2017-11-10T04:55:42.551Z,0
2017-11-10T04:56:23.109Z,0
2017-11-10T04:57:03.694Z,0
2017-11-10T04:57:44.276Z,0
2017-11-10T04:58:24.872Z,0
2017-11-10T04:59:05.459Z,0
2017-11-10T04:59:46.043Z,0
2017-11-10T05:00:26.643Z,0
2017-11-10T05:01:07.243Z,0
2017-11-10T05:01:47.823Z,0
2017-11-10T05:02:28.387Z,0
2017-11-10T05:03:08.976Z,0
2017-11-10T05:03:49.549Z,0
2017-11-10T05:04:30.115Z,0
2017-11-10T05:05:10.665Z,0
2017-11-10T05:05:51.268Z,0
2017-11-10T05:06:31.851Z,0
2017-11-10T05:07:12.441Z,0
2017-11-10T05:07:53.027Z,0
2017-11-10T05:08:33.629Z,0
2017-11-10T05:09:14.444Z,0
2017-11-10T05:09:55.006Z,0
2017-11-10T05:10:35.583Z,0
2017-11-10T05:11:16.151Z,0
2017-11-10T05:11:56.953Z,0
2017-11-10T05:12:37.545Z,0
2017-11-10T05:13:18.373Z,0
2017-11-10T05:13:58.991Z,0
2017-11-10T05:14:39.596Z,0
2017-11-10T05:15:20.175Z,0
2017-11-10T05:16:01.182Z,0
2017-11-10T05:16:42.211Z,0
2017-11-10T05:17:22.786Z,0
2017-11-10T05:18:04.968Z,0
2017-11-10T05:18:45.523Z,0
2017-11-10T05:19:26.108Z,0
2017-11-10T05:20:06.687Z,0
2017-11-10T05:20:47.255Z,0
2017-11-10T05:21:27.824Z,0
2017-11-10T05:22:08.755Z,0
2017-11-10T05:22:49.688Z,0
2017-11-10T05:23:30.256Z,0
2017-11-10T05:24:12.067Z,0
2017-11-10T05:24:52.642Z,0
2017-11-10T05:25:33.230Z,0
2017-11-10T05:26:13.826Z,0
2017-11-10T05:26:54.432Z,0
2017-11-10T05:27:35.042Z,0
2017-11-10T05:28:15.627Z,0
2017-11-10T05:28:56.205Z,0
2017-11-10T05:29:36.750Z,0
2017-11-10T05:30:17.339Z,0
2017-11-10T05:30:57.915Z,0
2017-11-10T05:31:38.485Z,0
2017-11-10T05:32:19.040Z,0
2017-11-10T05:32:59.626Z,0
2017-11-10T05:33:40.187Z,0
2017-11-10T05:34:20.765Z,0
2017-11-10T05:35:01.356Z,0
2017-11-10T05:35:41.941Z,0
2017-11-10T05:36:22.509Z,0
2017-11-10T05:37:03.111Z,0
2017-11-10T05:37:43.687Z,0
2017-11-10T05:38:24.255Z,0
2017-11-10T05:39:05.560Z,0
2017-11-10T05:39:46.175Z,0
2017-11-10T05:40:26.742Z,0
2017-11-10T05:41:07.463Z,0
2017-11-10T05:41:48.070Z,0
2017-11-10T05:42:29.297Z,0
2017-11-10T05:43:09.858Z,0
2017-11-10T05:43:50.439Z,0
2017-11-10T05:44:31.011Z,0
2017-11-10T05:45:11.585Z,0
2017-11-10T05:45:52.170Z,0
2017-11-10T05:46:32.758Z,0
2017-11-10T05:47:13.358Z,0
2017-11-10T05:47:53.922Z,0
2017-11-10T05:48:34.514Z,0
2017-11-10T05:49:15.090Z,0
2017-11-10T05:49:55.661Z,0
2017-11-10T05:50:36.232Z,0
2017-11-10T05:51:16.822Z,0
2017-11-10T05:51:57.394Z,0
2017-11-10T05:52:37.961Z,0
2017-11-10T05:53:18.547Z,0
2017-11-10T05:53:59.100Z,0
2017-11-10T05:54:39.672Z,0
2017-11-10T05:55:20.266Z,0
2017-11-10T05:56:00.864Z,0
2017-11-10T05:56:41.454Z,0
2017-11-10T05:57:22.047Z,0
2017-11-10T05:58:02.622Z,0
2017-11-10T05:58:43.179Z,0
2017-11-10T05:59:23.760Z,0
2017-11-10T06:00:04.353Z,4
2017-11-10T06:00:44.905Z,4
2017-11-10T06:01:25.472Z,4
2017-11-10T06:02:06.040Z,4
2017-11-10T06:02:46.604Z,0
2017-11-10T06:03:27.181Z,0
2017-11-10T06:04:07.743Z,4
2017-11-10T06:04:48.307Z,4
2017-11-10T06:05:28.883Z,4
2017-11-10T06:06:09.680Z,4
2017-11-10T06:06:50.269Z,8
2017-11-10T06:07:30.816Z,4
2017-11-10T06:08:11.399Z,8
2017-11-10T06:08:51.987Z,8
2017-11-10T06:09:32.555Z,8
2017-11-10T06:10:13.116Z,8
2017-11-10T06:10:53.703Z,12
2017-11-10T06:11:34.293Z,12
2017-11-10T06:12:15.376Z,12
2017-11-10T06:12:55.949Z,16
2017-11-10T06:13:36.503Z,16
2017-11-10T06:14:18.136Z,16
2017-11-10T06:14:58.743Z,16
2017-11-10T06:15:40.223Z,16
2017-11-10T06:16:20.818Z,20
2017-11-10T06:17:01.408Z,24
2017-11-10T06:17:41.968Z,28
2017-11-10T06:18:22.548Z,28
2017-11-10T06:19:03.142Z,32
2017-11-10T06:19:43.779Z,32
2017-11-10T06:20:24.335Z,36
2017-11-10T06:21:04.913Z,36
2017-11-10T06:21:45.482Z,36
2017-11-10T06:22:26.071Z,40
2017-11-10T06:23:06.623Z,44
2017-11-10T06:23:47.183Z,52
2017-11-10T06:24:27.759Z,52
2017-11-10T06:25:08.346Z,56
2017-11-10T06:25:48.920Z,60
2017-11-10T06:26:29.525Z,64
2017-11-10T06:27:10.108Z,60
2017-11-10T06:27:50.665Z,64
2017-11-10T06:28:31.301Z,60
2017-11-10T06:29:11.898Z,60
2017-11-10T06:29:52.455Z,60
2017-11-10T06:30:33.030Z,60
2017-11-10T06:31:13.633Z,64
2017-11-10T06:31:54.224Z,60
2017-11-10T06:32:34.805Z,64
2017-11-10T06:33:15.381Z,64
2017-11-10T06:33:55.957Z,68
2017-11-10T06:34:36.556Z,72
2017-11-10T06:35:17.118Z,76
2017-11-10T06:35:57.704Z,80
2017-11-10T06:36:38.421Z,84
2017-11-10T06:37:18.905Z,92
2017-11-10T06:37:59.510Z,96
2017-11-10T06:38:40.083Z,92
2017-11-10T06:39:20.676Z,92
2017-11-10T06:40:01.727Z,88
2017-11-10T06:40:42.311Z,96
2017-11-10T06:41:22.875Z,100
2017-11-10T06:42:03.453Z,116
2017-11-10T06:42:44.123Z,112
2017-11-10T06:43:24.712Z,112
2017-11-10T06:44:05.286Z,116
2017-11-10T06:44:45.901Z,124
2017-11-10T06:45:26.475Z,140
2017-11-10T06:46:07.046Z,144
2017-11-10T06:46:47.615Z,148
2017-11-10T06:47:28.209Z,152
2017-11-10T06:48:08.788Z,148
2017-11-10T06:48:49.366Z,172
2017-11-10T06:49:29.945Z,192
2017-11-10T06:50:10.556Z,200
2017-11-10T06:50:51.154Z,216
2017-11-10T06:51:31.691Z,204
2017-11-10T06:52:12.314Z,200
2017-11-10T06:52:52.895Z,192
2017-11-10T06:53:33.467Z,172
2017-11-10T06:54:14.039Z,176
2017-11-10T06:54:54.643Z,196
2017-11-10T06:55:35.236Z,212
2017-11-10T06:56:15.871Z,220
2017-11-10T06:56:56.465Z,228
2017-11-10T06:57:37.036Z,224
2017-11-10T06:58:17.633Z,232
2017-11-10T06:58:58.220Z,232
2017-11-10T06:59:38.813Z,240
2017-11-10T07:00:19.397Z,248
2017-11-10T07:00:59.969Z,256
2017-11-10T07:01:40.568Z,272
2017-11-10T07:02:21.185Z,272
2017-11-10T07:03:01.750Z,268
2017-11-10T07:03:42.340Z,260
2017-11-10T07:04:22.911Z,304
2017-11-10T07:05:03.508Z,340
2017-11-10T07:05:44.103Z,336
2017-11-10T07:06:24.675Z,312
2017-11-10T07:07:05.248Z,296
2017-11-10T07:07:45.818Z,292
2017-11-10T07:08:26.382Z,284
2017-11-10T07:09:06.934Z,292
2017-11-10T07:09:47.500Z,312
2017-11-10T07:10:28.082Z,328
2017-11-10T07:11:08.699Z,356
2017-11-10T07:11:49.274Z,380
2017-11-10T07:12:29.861Z,396
2017-11-10T07:13:10.427Z,396
2017-11-10T07:13:51.017Z,396
2017-11-10T07:14:31.587Z,448
2017-11-10T07:15:12.159Z,512
2017-11-10T07:15:53.494Z,536
2017-11-10T07:16:34.082Z,524
2017-11-10T07:17:14.676Z,504
2017-11-10T07:17:55.270Z,508
2017-11-10T07:18:35.831Z,500
2017-11-10T07:19:16.419Z,472
2017-11-10T07:19:57.021Z,460
2017-11-10T07:20:37.694Z,432
2017-11-10T07:21:18.254Z,428
2017-11-10T07:21:58.836Z,496
2017-11-10T07:22:39.408Z,548
2017-11-10T07:23:19.985Z,592
2017-11-10T07:24:00.553Z,612
2017-11-10T07:24:41.167Z,680
2017-11-10T07:25:21.769Z,712
2017-11-10T07:26:02.330Z,784
2017-11-10T07:26:42.950Z,836
2017-11-10T07:27:23.548Z,788
2017-11-10T07:28:04.112Z,788
2017-11-10T07:28:44.711Z,728
2017-11-10T07:29:25.318Z,736
2017-11-10T07:30:05.894Z,696
2017-11-10T07:30:46.492Z,572
2017-11-10T07:31:27.078Z,524
2017-11-10T07:32:07.681Z,512
2017-11-10T07:32:48.246Z,540
2017-11-10T07:33:28.842Z,580
2017-11-10T07:34:09.429Z,660
2017-11-10T07:34:50.007Z,716
2017-11-10T07:35:30.617Z,760
2017-11-10T07:36:11.151Z,680
2017-11-10T07:36:51.776Z,704
2017-11-10T07:37:32.345Z,760
2017-11-10T07:38:12.930Z,808
2017-11-10T07:38:53.516Z,824
2017-11-10T07:39:34.123Z,748
2017-11-10T07:40:14.717Z,660
2017-11-10T07:40:55.310Z,636
2017-11-10T07:41:35.911Z,616
2017-11-10T07:42:16.504Z,708
2017-11-10T07:42:57.060Z,748
2017-11-10T07:43:37.695Z,688
2017-11-10T07:44:18.331Z,584
2017-11-10T07:44:58.895Z,540
2017-11-10T07:45:39.464Z,568
2017-11-10T07:46:20.061Z,504
2017-11-10T07:47:00.631Z,516
2017-11-10T07:47:41.238Z,520
2017-11-10T07:48:21.829Z,508
2017-11-10T07:49:02.416Z,504
2017-11-10T07:49:42.973Z,480
2017-11-10T07:50:23.561Z,472
2017-11-10T07:51:04.120Z,440
2017-11-10T07:51:44.682Z,452
2017-11-10T07:52:25.267Z,440
2017-11-10T07:53:05.829Z,448
2017-11-10T07:53:46.390Z,436
2017-11-10T07:54:26.964Z,440
2017-11-10T07:55:07.526Z,452
2017-11-10T07:55:48.096Z,440
2017-11-10T07:56:28.665Z,432
2017-11-10T07:57:09.272Z,408
2017-11-10T07:57:49.870Z,392
2017-11-10T07:58:30.447Z,364
2017-11-10T07:59:11.128Z,360
2017-11-10T07:59:51.717Z,352
2017-11-10T08:00:32.290Z,332
2017-11-10T08:01:13.083Z,320
2017-11-10T08:01:53.668Z,288
2017-11-10T08:02:34.221Z,284
2017-11-10T08:03:14.819Z,280
2017-11-10T08:03:55.425Z,308
2017-11-10T08:04:36.011Z,320
2017-11-10T08:05:16.631Z,328
2017-11-10T08:05:57.175Z,368
2017-11-10T08:06:37.733Z,396
2017-11-10T08:07:18.307Z,400
2017-11-10T08:07:58.887Z,412
2017-11-10T08:08:39.467Z,448
2017-11-10T08:09:20.051Z,452
2017-11-10T08:10:00.622Z,412
2017-11-10T08:10:41.180Z,424
2017-11-10T08:11:21.769Z,420
2017-11-10T08:12:02.345Z,436
2017-11-10T08:12:42.917Z,400
2017-11-10T08:13:23.507Z,436
2017-11-10T08:14:04.081Z,432
2017-11-10T08:14:44.650Z,512
2017-11-10T08:15:25.226Z,584
2017-11-10T08:16:05.817Z,624
2017-11-10T08:16:46.455Z,656
2017-11-10T08:17:27.038Z,684
2017-11-10T08:18:07.631Z,724
2017-11-10T08:18:48.202Z,744
2017-11-10T08:19:28.772Z,804
2017-11-10T08:20:09.348Z,864
2017-11-10T08:20:49.918Z,864
2017-11-10T08:21:30.500Z,900
2017-11-10T08:22:11.137Z,824
2017-11-10T08:22:51.740Z,776
2017-11-10T08:23:32.328Z,812
2017-11-10T08:24:12.920Z,844
2017-11-10T08:24:53.494Z,872
2017-11-10T08:25:34.083Z,860
2017-11-10T08:26:14.642Z,888
2017-11-10T08:26:55.233Z,1036
2017-11-10T08:27:35.820Z,1120
2017-11-10T08:28:16.389Z,1140
2017-11-10T08:28:56.944Z,1092
2017-11-10T08:29:37.526Z,1000
2017-11-10T08:30:18.085Z,888
2017-11-10T08:30:58.671Z,780
2017-11-10T08:31:39.272Z,768
2017-11-10T08:32:19.858Z,732
2017-11-10T08:33:00.440Z,676
2017-11-10T08:33:41.043Z,692
2017-11-10T08:34:21.628Z,672
2017-11-10T08:35:02.258Z,672
2017-11-10T08:35:42.825Z,680
2017-11-10T08:36:23.419Z,640
2017-11-10T08:37:03.999Z,632
2017-11-10T08:37:44.563Z,644
2017-11-10T08:38:25.122Z,640
2017-11-10T08:39:05.710Z,660
2017-11-10T08:39:46.290Z,704
2017-11-10T08:40:26.866Z,692
2017-11-10T08:41:07.446Z,620
2017-11-10T08:41:48.002Z,612
2017-11-10T08:42:28.573Z,632
2017-11-10T08:43:09.168Z,740
2017-11-10T08:43:49.730Z,644
2017-11-10T08:44:30.303Z,672
2017-11-10T08:45:10.873Z,640
2017-11-10T08:45:51.440Z,684
2017-11-10T08:46:32.024Z,744
2017-11-10T08:47:12.632Z,784
2017-11-10T08:47:53.201Z,908
2017-11-10T08:48:33.967Z,876
2017-11-10T08:49:14.551Z,900
2017-11-10T08:49:55.127Z,1008
2017-11-10T08:50:35.707Z,1060
2017-11-10T08:51:16.291Z,1008
2017-11-10T08:51:56.895Z,924
2017-11-10T08:52:37.474Z,792
2017-11-10T08:53:18.041Z,716
2017-11-10T08:53:58.602Z,720
2017-11-10T08:54:39.205Z,792
2017-11-10T08:55:19.786Z,904
2017-11-10T08:56:00.386Z,828
2017-11-10T08:56:40.975Z,708
2017-11-10T08:57:21.550Z,696
2017-11-10T08:58:02.136Z,716
2017-11-10T08:58:42.708Z,716
2017-11-10T08:59:23.290Z,688
2017-11-10T09:00:03.861Z,704
2017-11-10T09:00:44.438Z,716
2017-11-10T09:01:25.028Z,688
2017-11-10T09:02:05.632Z,748
2017-11-10T09:02:46.202Z,744
2017-11-10T09:03:26.802Z,788
2017-11-10T09:04:07.375Z,900
2017-11-10T09:04:47.959Z,952
2017-11-10T09:05:28.599Z,936
2017-11-10T09:06:09.205Z,928
2017-11-10T09:06:49.827Z,840
2017-11-10T09:07:30.405Z,796
2017-11-10T09:08:10.990Z,896
2017-11-10T09:08:51.574Z,876
2017-11-10T09:09:32.155Z,820
2017-11-10T09:10:12.882Z,848
2017-11-10T09:10:53.460Z,848
2017-11-10T09:11:34.639Z,700
2017-11-10T09:12:15.527Z,696
2017-11-10T09:12:55.994Z,716
2017-11-10T09:13:36.555Z,840
2017-11-10T09:14:17.124Z,824
2017-11-10T09:14:57.687Z,728
2017-11-10T09:15:38.387Z,732
2017-11-10T09:16:19.153Z,908
2017-11-10T09:16:59.735Z,996
2017-11-10T09:17:40.331Z,944
2017-11-10T09:18:20.909Z,1056
2017-11-10T09:19:02.233Z,1076
2017-11-10T09:19:42.836Z,1072
2017-11-10T09:20:23.423Z,1112
2017-11-10T09:21:03.997Z,1172
2017-11-10T09:21:44.632Z,1212
2017-11-10T09:22:25.221Z,1296
2017-11-10T09:23:05.809Z,1376
2017-11-10T09:23:46.391Z,1368
2017-11-10T09:24:27.012Z,1384
2017-11-10T09:25:08.503Z,1436
2017-11-10T09:25:49.356Z,1552
2017-11-10T09:26:29.914Z,1520
2017-11-10T09:27:10.497Z,1428
2017-11-10T09:27:51.051Z,1424
2017-11-10T09:28:31.621Z,1384
2017-11-10T09:29:12.221Z,1524
2017-11-10T09:29:52.775Z,1516
2017-11-10T09:30:33.404Z,1492
2017-11-10T09:31:13.982Z,1516
2017-11-10T09:31:54.608Z,1348
2017-11-10T09:32:35.184Z,1384
2017-11-10T09:33:15.795Z,1280
2017-11-10T09:33:56.403Z,1072
2017-11-10T09:34:36.985Z,956
2017-11-10T09:35:17.583Z,920
2017-11-10T09:35:58.189Z,972
2017-11-10T09:36:38.712Z,900
2017-11-10T09:37:19.289Z,748
2017-11-10T09:37:59.862Z,804
2017-11-10T09:38:40.444Z,732
2017-11-10T09:39:21.022Z,616
2017-11-10T09:40:01.605Z,548
2017-11-10T09:40:42.184Z,504
2017-11-10T09:41:22.769Z,460
2017-11-10T09:42:03.361Z,440
2017-11-10T09:42:43.933Z,444
2017-11-10T09:43:24.528Z,444
2017-11-10T09:44:05.097Z,440
2017-11-10T09:44:45.703Z,432